Time;durP1;ratioP1;P1;durP2;ratioP2;P2;SDS_P1;SDS_P2;PMS_P1;PMS_P2;Temp;Humidity;BMP_temperature;BMP_pressure;BME280_temperature;BME280_humidity;BME280_pressure;Samples;Min_cycle;Max_cycle;Signal;HPM_P1;HPM_P2
2022/05/31 00:00:32;;;;;;;6.57;3.95;;;;;;;10.51;100.00;97883.47;5137856;27;20015;-84
2022/05/31 00:02:59;;;;;;;5.95;4.15;;;;;;;10.46;100.00;97873.41;5138966;27;20023;-84
2022/05/31 00:05:25;;;;;;;6.95;4.15;;;;;;;10.68;100.00;97890.03;5156829;27;20023;-87
2022/05/31 00:07:51;;;;;;;5.68;4.07;;;;;;;10.65;100.00;97889.84;5158183;27;20043;-82
2022/05/31 00:10:17;;;;;;;5.75;3.78;;;;;;;10.62;100.00;97891.22;5140562;27;20116;-85
2022/05/31 00:12:46;;;;;;;5.93;3.95;;;;;;;10.57;100.00;97894.03;5138699;27;20023;-87
2022/05/31 00:15:14;;;;;;;7.40;4.18;;;;;;;10.57;100.00;97899.50;5138353;27;20023;-84
2022/05/31 00:17:42;;;;;;;9.32;4.47;;;;;;;10.67;100.00;97904.84;5139064;27;20026;-84
2022/05/31 00:20:10;;;;;;;8.27;4.43;;;;;;;10.75;100.00;97900.59;5156738;27;20027;-84
2022/05/31 00:22:36;;;;;;;6.97;3.90;;;;;;;10.83;100.00;97901.84;5156688;27;20011;-85
2022/05/31 00:25:04;;;;;;;7.18;4.40;;;;;;;10.93;100.00;97918.13;5139059;27;20054;-83
2022/05/31 00:27:29;;;;;;;9.18;3.83;;;;;;;10.96;100.00;97912.06;5156175;27;20027;-85
2022/05/31 00:29:56;;;;;;;9.05;4.03;;;;;;;10.97;100.00;97898.06;5156174;27;20080;-85
2022/05/31 00:32:32;;;;;;;8.18;4.20;;;;;;;10.87;100.00;97897.44;5156637;27;20035;-83
2022/05/31 00:35:05;;;;;;;8.48;4.38;;;;;;;10.82;100.00;97902.97;5138637;27;20096;-86
2022/05/31 00:37:32;;;;;;;5.28;4.13;;;;;;;10.98;100.00;97893.41;5142354;27;20014;-85
2022/05/31 00:39:58;;;;;;;10.55;4.32;;;;;;;11.08;100.00;97906.91;5142472;27;20019;-83
2022/05/31 00:42:24;;;;;;;6.75;4.15;;;;;;;11.04;100.00;97914.09;5142785;27;20031;-84
2022/05/31 00:44:49;;;;;;;7.10;3.88;;;;;;;11.09;100.00;97912.06;5142624;27;20022;-83
2022/05/31 00:47:23;;;;;;;8.68;3.67;;;;;;;11.09;100.00;97903.03;5159937;27;20026;-86
2022/05/31 00:49:53;;;;;;;4.60;3.28;;;;;;;11.18;100.00;97920.44;5142517;27;20032;-83
2022/05/31 00:52:24;;;;;;;4.35;3.00;;;;;;;11.14;100.00;97919.41;5142796;27;20008;-83
2022/05/31 00:55:00;;;;;;;8.98;3.38;;;;;;;11.19;100.00;97919.31;5160281;27;20019;-84
2022/05/31 00:57:27;;;;;;;5.10;3.10;;;;;;;11.16;100.00;97911.69;5142505;27;20037;-82
2022/05/31 00:59:59;;;;;;;5.38;3.35;;;;;;;10.99;100.00;97897.78;5142346;27;20045;-84
2022/05/31 01:02:25;;;;;;;5.57;3.22;;;;;;;11.04;100.00;97909.44;5159623;27;20064;-84
2022/05/31 01:04:58;;;;;;;5.30;3.05;;;;;;;11.03;100.00;97906.97;5152315;27;20028;-86
2022/05/31 01:07:24;;;;;;;6.82;3.30;;;;;;;11.22;100.00;97929.66;5156740;27;20031;-84
2022/05/31 01:09:52;;;;;;;7.10;3.13;;;;;;;11.20;100.00;97915.47;5139635;27;20050;-84
2022/05/31 01:12:19;;;;;;;8.15;3.42;;;;;;;11.20;100.00;97918.19;5138465;27;20040;-84
2022/05/31 01:14:44;;;;;;;4.97;3.08;;;;;;;11.35;100.00;97928.88;5139739;27;20031;-83
2022/05/31 01:17:17;;;;;;;5.38;3.53;;;;;;;11.27;100.00;97918.63;5157501;27;20023;-86
2022/05/31 01:19:56;;;;;;;5.05;3.30;;;;;;;11.29;100.00;97917.22;5139259;27;20030;-85
2022/05/31 01:23:10;;;;;;;4.75;3.33;;;;;;;11.23;100.00;97923.91;5139584;27;20023;-86
2022/05/31 01:25:44;;;;;;;5.15;3.67;;;;;;;11.18;100.00;97913.00;5117464;27;20035;-86
2022/05/31 01:28:36;;;;;;;4.65;3.28;;;;;;;11.22;100.00;97914.03;5156641;27;20060;-85
2022/05/31 01:31:13;;;;;;;6.25;4.18;;;;;;;11.27;100.00;97908.50;5139022;27;20042;-86
2022/05/31 01:33:58;;;;;;;6.47;3.47;;;;;;;11.18;100.00;97904.00;5156632;27;19999;-85
2022/05/31 01:36:40;;;;;;;9.00;4.17;;;;;;;11.03;100.00;97896.03;5138796;27;20026;-86
2022/05/31 01:39:13;;;;;;;6.53;3.75;;;;;;;10.93;100.00;97890.75;5156692;27;20064;-85
2022/05/31 01:41:46;;;;;;;5.40;3.60;;;;;;;10.92;100.00;97881.72;5138251;27;20026;-84
2022/05/31 01:44:16;;;;;;;6.47;3.20;;;;;;;11.02;100.00;97898.00;5156437;27;20010;-85
2022/05/31 01:46:42;;;;;;;7.72;3.05;;;;;;;10.85;100.00;97907.84;5139275;28;20093;-83
2022/05/31 01:49:12;;;;;;;5.47;3.60;;;;;;;10.97;100.00;97916.38;5156066;27;20047;-86
2022/05/31 01:51:40;;;;;;;13.35;3.67;;;;;;;10.92;100.00;97905.53;5138077;28;20031;-85
2022/05/31 01:54:08;;;;;;;5.45;3.50;;;;;;;11.13;100.00;97904.06;5138396;28;20075;-85
2022/05/31 01:56:35;;;;;;;6.88;3.97;;;;;;;11.12;100.00;97900.53;5152857;27;20031;-87
2022/05/31 01:59:03;;;;;;;5.05;3.45;;;;;;;11.13;100.00;97904.06;5134203;28;20043;-84
2022/05/31 02:01:33;;;;;;;5.43;4.05;;;;;;;11.10;100.00;97907.41;5154492;27;20034;-85
2022/05/31 02:04:00;;;;;;;5.18;3.20;;;;;;;11.19;100.00;97911.09;5155218;28;20086;-84
2022/05/31 02:06:35;;;;;;;6.80;3.55;;;;;;;11.24;100.00;97921.97;5155626;28;20023;-84
2022/05/31 02:09:02;;;;;;;5.22;3.50;;;;;;;11.24;100.00;97920.03;5136596;28;20120;-85
2022/05/31 02:11:28;;;;;;;6.43;4.05;;;;;;;11.22;100.00;97905.84;5157110;28;20063;-80
2022/05/31 02:13:54;;;;;;;6.50;3.65;;;;;;;11.18;100.00;97904.78;5157373;28;20043;-87
2022/05/31 02:16:20;;;;;;;7.22;4.00;;;;;;;11.22;100.00;97907.75;5157132;28;20031;-86
2022/05/31 02:21:35;;;;;;;5.30;3.65;;;;;;;11.33;100.00;97920.16;5142101;28;20064;-83
2022/05/31 02:24:11;;;;;;;7.53;4.45;;;;;;;11.22;100.00;97926.91;5157230;27;20012;-82
2022/05/31 02:26:41;;;;;;;5.63;4.25;;;;;;;11.33;100.00;97939.34;5158663;27;20044;-83
2022/05/31 02:29:08;;;;;;;6.22;4.07;;;;;;;11.30;100.00;97931.72;5158316;27;20066;-84
2022/05/31 02:31:34;;;;;;;8.98;3.60;;;;;;;11.34;100.00;97932.72;5160138;27;20054;-83
2022/05/31 02:34:00;;;;;;;7.97;3.75;;;;;;;11.37;100.00;97932.13;5143237;27;20043;-88
2022/05/31 02:36:26;;;;;;;8.15;3.63;;;;;;;11.25;100.00;97915.38;5126067;27;20035;-86
2022/05/31 02:38:53;;;;;;;6.82;3.65;;;;;;;11.33;100.00;97939.34;5160192;27;20031;-83
2022/05/31 02:41:18;;;;;;;5.78;3.50;;;;;;;11.25;100.00;97932.59;5161511;27;20043;-84
2022/05/31 02:43:43;;;;;;;5.53;3.80;;;;;;;11.18;100.00;97931.38;5144224;27;20034;-86
2022/05/31 02:46:09;;;;;;;5.97;4.07;;;;;;;11.36;100.00;97948.88;5162248;27;20019;-85
2022/05/31 02:48:34;;;;;;;9.35;4.53;;;;;;;11.33;100.00;97938.53;5144837;27;20032;-85
2022/05/31 02:51:00;;;;;;;6.07;4.05;;;;;;;11.32;100.00;97942.34;5161128;27;20035;-84
2022/05/31 02:53:25;;;;;;;7.95;4.00;;;;;;;11.39;100.00;97932.66;5161719;27;20031;-83
2022/05/31 02:55:51;;;;;;;5.85;3.67;;;;;;;11.41;100.00;97938.63;5143456;27;20094;-85
2022/05/31 02:58:16;;;;;;;4.82;3.25;;;;;;;11.39;100.00;97934.56;5160790;27;20074;-87
2022/05/31 03:00:41;;;;;;;7.47;4.13;;;;;;;11.37;100.00;97928.59;5160623;27;20019;-85
2022/05/31 03:03:07;;;;;;;7.25;4.03;;;;;;;11.40;100.00;97934.28;5160551;27;20041;-84
2022/05/31 03:05:33;;;;;;;5.30;3.67;;;;;;;11.41;100.00;97935.91;5142783;27;20386;-84
2022/05/31 03:07:58;;;;;;;6.72;4.35;;;;;;;11.39;100.00;97921.69;5160375;27;20035;-82
2022/05/31 03:10:32;;;;;;;7.47;4.07;;;;;;;11.27;100.00;97902.19;5161238;27;20016;-87
2022/05/31 03:12:57;;;;;;;4.63;3.50;;;;;;;11.33;100.00;97911.13;5143491;27;20015;-86
2022/05/31 03:15:24;;;;;;;6.00;3.80;;;;;;;11.40;100.00;97923.34;5161157;27;20007;-85
2022/05/31 03:18:00;;;;;;;6.63;3.67;;;;;;;11.40;100.00;97923.34;5144206;27;20113;-81
2022/05/31 03:20:33;;;;;;;7.72;4.47;;;;;;;11.49;100.00;97931.66;5144339;27;20071;-82
2022/05/31 03:23:04;;;;;;;7.50;4.13;;;;;;;11.54;100.00;97921.41;5162298;27;20014;-85
2022/05/31 03:25:31;;;;;;;5.53;3.83;;;;;;;11.54;100.00;97923.34;5144084;27;20064;-82
2022/05/31 03:27:59;;;;;;;9.77;4.03;;;;;;;11.59;100.00;97921.31;5161452;27;20023;-83
2022/05/31 03:30:25;;;;;;;7.20;3.50;;;;;;;11.63;100.00;97916.84;5144064;27;20019;-80
2022/05/31 03:32:52;;;;;;;8.02;3.60;;;;;;;11.61;100.00;97919.09;5161727;27;20091;-84
2022/05/31 03:35:17;;;;;;;11.95;3.75;;;;;;;11.58;100.00;97914.22;5144047;27;20073;-83
2022/05/31 03:37:43;;;;;;;8.30;4.55;;;;;;;11.51;100.00;97910.25;5161830;27;20035;-82
2022/05/31 03:40:09;;;;;;;5.28;3.67;;;;;;;11.54;100.00;97907.72;5143999;27;20049;-85
2022/05/31 03:42:35;;;;;;;7.25;3.95;;;;;;;11.58;100.00;97910.66;5143826;27;20004;-78
2022/05/31 03:45:00;;;;;;;6.35;4.60;;;;;;;11.60;100.00;97906.50;5144031;27;20023;-81
2022/05/31 03:47:26;;;;;;;6.65;3.55;;;;;;;11.78;100.00;97915.78;5161863;27;20011;-82
2022/05/31 03:49:51;;;;;;;7.93;4.13;;;;;;;11.84;100.00;97916.50;5143828;27;20043;-82
2022/05/31 03:52:17;;;;;;;6.00;4.15;;;;;;;11.96;100.00;97925.84;5143897;27;20027;-79
2022/05/31 03:54:43;;;;;;;4.63;3.10;;;;;;;12.01;100.00;97911.22;5143518;27;20011;-80
2022/05/31 03:57:17;;;;;;;6.30;3.83;;;;;;;12.19;100.00;97929.47;5126734;27;20087;-81
2022/05/31 03:59:43;;;;;;;5.38;3.40;;;;;;;12.16;100.00;97924.59;5161260;27;20041;-86
2022/05/31 04:02:08;;;;;;;12.73;8.68;;;;;;;12.25;100.00;97900.81;5156612;27;20023;-86
2022/05/31 04:04:34;;;;;;;46.22;22.92;;;;;;;12.58;100.00;97923.41;5157610;27;20093;-84
2022/05/31 04:07:00;;;;;;;23.70;11.40;;;;;;;12.56;100.00;97915.47;5160232;27;20040;-85
2022/05/31 04:09:26;;;;;;;8.73;5.70;;;;;;;12.74;100.00;97913.72;5142659;27;20071;-84
2022/05/31 04:11:54;;;;;;;11.75;6.47;;;;;;;12.69;100.00;97911.88;5160254;27;20027;-84
2022/05/31 04:14:20;;;;;;;6.80;3.30;;;;;;;12.58;100.00;97917.94;5160579;27;20138;-85
2022/05/31 04:16:45;;;;;;;7.15;4.50;;;;;;;12.44;100.00;97909.72;5160367;27;20031;-83
2022/05/31 04:19:11;;;;;;;5.30;3.22;;;;;;;12.38;100.00;97894.50;5160300;27;20049;-83
2022/05/31 04:21:37;;;;;;;7.00;4.18;;;;;;;12.47;100.00;97911.84;5143548;27;20030;-85
2022/05/31 04:24:08;;;;;;;8.40;3.75;;;;;;;12.35;100.00;97906.09;5161114;27;20008;-79
2022/05/31 04:26:38;;;;;;;4.68;3.20;;;;;;;12.34;100.00;97909.97;5143257;27;20034;-85
2022/05/31 04:29:03;;;;;;;7.85;3.80;;;;;;;12.33;100.00;97930.28;5123701;27;20037;-84
2022/05/31 04:31:29;;;;;;;6.43;3.42;;;;;;;12.38;100.00;97921.94;5159956;27;20027;-80
2022/05/31 04:33:54;;;;;;;4.78;3.63;;;;;;;12.40;100.00;97927.94;5141706;27;20739;-83
2022/05/31 04:36:21;;;;;;;10.02;3.60;;;;;;;12.47;100.00;97930.28;5138149;27;20457;-84
2022/05/31 04:38:46;;;;;;;4.97;3.30;;;;;;;12.38;100.00;97924.69;5159370;27;20012;-78
2022/05/31 04:41:18;;;;;;;5.72;3.20;;;;;;;12.51;100.00;97931.25;5159597;27;20010;-76
2022/05/31 04:43:44;;;;;;;6.22;3.38;;;;;;;12.39;100.00;97930.97;5138189;27;20055;-87
2022/05/31 04:46:15;;;;;;;5.18;3.22;;;;;;;12.45;100.00;97929.75;5158750;27;20030;-81
2022/05/31 04:48:41;;;;;;;5.70;3.20;;;;;;;12.54;100.00;97923.22;5158365;27;20030;-82
2022/05/31 04:51:06;;;;;;;4.63;3.20;;;;;;;12.52;100.00;97924.66;5147527;27;20031;-77
2022/05/31 04:53:32;;;;;;;8.77;3.83;;;;;;;12.64;100.00;97917.50;5136971;27;20449;-78
2022/05/31 04:56:03;;;;;;;6.63;3.90;;;;;;;12.71;100.00;97919.84;5125803;27;20034;-77
2022/05/31 04:58:28;;;;;;;6.55;3.63;;;;;;;12.76;100.00;97920.53;5122126;27;20368;-81
2022/05/31 05:00:54;;;;;;;5.97;3.78;;;;;;;12.78;100.00;97926.50;5112000;27;20029;-76
2022/05/31 05:03:20;;;;;;;7.40;4.57;;;;;;;12.84;100.00;97922.50;5135535;27;20076;-80
2022/05/31 05:05:45;;;;;;;6.70;4.20;;;;;;;12.83;100.00;97940.13;5134676;27;20027;-80
2022/05/31 05:08:11;;;;;;;6.32;4.30;;;;;;;12.75;100.00;97920.81;5132354;27;20512;-79
2022/05/31 05:10:37;;;;;;;4.80;3.30;;;;;;;12.84;100.00;97936.22;5115503;27;21073;-79
2022/05/31 05:13:02;;;;;;;13.23;3.92;;;;;;;12.84;100.00;97933.50;5134977;27;20019;-81
2022/05/31 05:15:28;;;;;;;5.90;3.53;;;;;;;12.97;100.00;97931.03;5136221;27;20031;-79
2022/05/31 05:17:53;;;;;;;6.10;4.57;;;;;;;12.96;100.00;97927.47;5120839;27;20083;-81
2022/05/31 05:20:18;;;;;;;12.20;4.15;;;;;;;13.12;100.00;97919.69;5133498;27;20051;-76
2022/05/31 05:22:44;;;;;;;6.10;3.70;;;;;;;13.21;100.00;97926.88;5132556;27;20080;-74
2022/05/31 05:25:10;;;;;;;5.72;3.67;;;;;;;13.42;100.00;97927.16;5113640;27;20023;-77
2022/05/31 05:27:36;;;;;;;6.22;4.18;;;;;;;13.58;100.00;97928.38;5113790;27;20440;-80
2022/05/31 05:32:45;;;;;;;6.13;3.83;;;;;;;13.52;100.00;97937.06;5131928;27;20030;-78
2022/05/31 05:35:10;;;;;;;7.43;3.60;;;;;;;13.54;100.00;97957.63;5105448;27;20411;-77
2022/05/31 05:37:36;;;;;;;7.95;4.10;;;;;;;13.43;100.00;97948.03;5131722;27;20030;-74
2022/05/31 05:40:01;;;;;;;6.40;3.67;;;;;;;13.50;100.00;97959.38;5129992;27;20494;-76
2022/05/31 05:42:27;;;;;;;6.72;3.45;;;;;;;13.30;100.00;97944.22;5112378;27;20392;-81
2022/05/31 05:44:52;;;;;;;7.43;3.70;;;;;;;13.19;100.00;97953.00;5131818;27;20428;-76
2022/05/31 05:47:17;;;;;;;5.85;3.45;;;;;;;13.07;100.00;97941.75;5131764;27;20043;-76
2022/05/31 05:49:43;;;;;;;6.82;4.88;;;;;;;13.09;100.00;97942.28;5130658;27;20023;-77
2022/05/31 05:52:15;;;;;;;4.90;3.53;;;;;;;13.19;100.00;97944.78;5131761;27;20062;-77
2022/05/31 05:54:42;;;;;;;9.80;4.15;;;;;;;13.33;100.00;97932.59;5113897;27;20030;-77
2022/05/31 05:57:07;;;;;;;8.05;4.20;;;;;;;13.50;100.00;97931.88;5111731;28;20039;-76
2022/05/31 05:59:32;;;;;;;6.07;3.72;;;;;;;13.66;100.00;97941.34;5112219;27;20015;-80
2022/05/31 06:02:27;;;;;;;8.93;4.20;;;;;;;13.58;100.00;97949.56;5095062;28;20053;-79
2022/05/31 06:05:00;;;;;;;6.47;4.13;;;;;;;13.79;100.00;97951.44;5102299;28;20039;-81
2022/05/31 06:07:30;;;;;;;7.43;3.83;;;;;;;14.06;100.00;97946.88;5112854;28;20118;-79
2022/05/31 06:10:14;;;;;;;7.93;4.00;;;;;;;14.19;100.00;97949.50;5112904;28;20385;-79
2022/05/31 06:12:44;;;;;;;6.53;4.03;;;;;;;14.26;100.00;97949.84;5095592;28;20047;-79
2022/05/31 06:15:18;;;;;;;7.57;3.72;;;;;;;14.16;100.00;97954.84;5097296;28;20038;-83
2022/05/31 06:17:46;;;;;;;6.57;4.22;;;;;;;14.09;100.00;97929.75;5115515;28;20553;-78
2022/05/31 06:20:13;;;;;;;10.52;4.55;;;;;;;14.40;100.00;97941.53;5095880;28;20040;-79
2022/05/31 06:22:41;;;;;;;6.18;3.78;;;;;;;14.50;100.00;97949.47;5094968;28;20118;-81
2022/05/31 06:25:08;;;;;;;8.23;4.75;;;;;;;14.56;100.00;97964.72;5112801;28;20020;-81
2022/05/31 06:27:33;;;;;;;5.57;4.03;;;;;;;14.73;100.00;97959.22;5112911;28;20023;-79
2022/05/31 06:29:59;;;;;;;8.30;4.45;;;;;;;14.72;100.00;97962.31;5095000;28;20028;-79
2022/05/31 06:32:24;;;;;;;7.05;4.07;;;;;;;14.44;100.00;97959.00;5094182;28;20500;-79
2022/05/31 06:34:52;;;;;;;9.57;4.38;;;;;;;14.67;100.00;97946.75;5113258;28;20027;-80
2022/05/31 06:37:17;;;;;;;8.73;5.07;;;;;;;14.39;100.00;97953.66;5115781;28;20043;-79
2022/05/31 06:39:44;;;;;;;6.80;4.55;;;;;;;15.23;100.00;97956.81;5115021;28;20095;-81
2022/05/31 06:42:11;;;;;;;9.30;4.30;;;;;;;15.68;100.00;97961.97;5113360;28;20051;-82
2022/05/31 06:44:39;;;;;;;5.30;3.58;;;;;;;15.89;100.00;97941.59;5113169;28;20066;-82
2022/05/31 06:47:06;;;;;;;6.40;4.15;;;;;;;16.04;99.64;97948.53;5112394;28;20020;-79
2022/05/31 06:49:33;;;;;;;7.03;4.15;;;;;;;16.29;98.76;97966.13;5112574;28;20039;-79
2022/05/31 06:57:32;;;;;;;7.00;4.25;;;;;;;16.26;98.55;97966.78;5112566;28;20058;-79
2022/05/31 06:59:58;;;;;;;6.15;4.43;;;;;;;16.13;99.25;97965.88;5111575;28;20112;-81
2022/05/31 07:02:23;;;;;;;5.57;3.63;;;;;;;15.96;99.83;97964.00;5096195;28;20122;-80
2022/05/31 07:04:49;;;;;;;7.18;4.28;;;;;;;16.12;98.30;97971.72;5114575;28;20020;-80
2022/05/31 07:07:14;;;;;;;9.32;4.35;;;;;;;16.28;97.29;97958.97;5094114;28;20810;-81
2022/05/31 07:09:39;;;;;;;7.07;3.92;;;;;;;16.73;95.43;97962.81;5114935;28;20062;-80
2022/05/31 07:12:05;;;;;;;6.35;3.40;;;;;;;16.96;92.68;97961.34;5116741;28;20020;-81
2022/05/31 07:14:31;;;;;;;5.68;3.85;;;;;;;17.15;92.44;97960.88;5116404;28;20023;-80
2022/05/31 07:16:56;;;;;;;5.70;3.53;;;;;;;17.29;91.01;97966.13;5117710;28;20354;-81
2022/05/31 07:19:21;;;;;;;8.18;4.00;;;;;;;17.08;91.82;97968.91;5118836;28;20122;-78
2022/05/31 07:21:47;;;;;;;7.03;4.25;;;;;;;16.73;95.34;97959.25;5117440;28;20055;-80
2022/05/31 07:24:13;;;;;;;6.13;4.38;;;;;;;16.86;94.31;97963.69;5118564;28;20031;-78
2022/05/31 07:26:39;;;;;;;6.07;4.10;;;;;;;17.20;91.58;97943.28;5121872;28;20028;-78
2022/05/31 07:29:05;;;;;;;11.40;4.47;;;;;;;17.62;90.91;97955.91;5100593;28;20015;-79
2022/05/31 07:31:30;;;;;;;5.88;3.80;;;;;;;17.85;87.59;97951.59;5097275;28;20498;-77
2022/05/31 07:33:58;;;;;;;6.03;3.35;;;;;;;18.14;84.83;97962.47;5116334;28;20016;-79
2022/05/31 07:36:24;;;;;;;9.68;4.03;;;;;;;18.18;84.75;97946.81;5116476;28;20106;-80
2022/05/31 07:38:50;;;;;;;6.63;3.20;;;;;;;18.29;84.39;97955.47;5097380;28;20103;-80
2022/05/31 07:41:15;;;;;;;6.80;3.60;;;;;;;18.27;84.90;97948.66;5097958;28;20490;-79
2022/05/31 07:43:40;;;;;;;5.40;3.63;;;;;;;17.98;84.46;97938.59;5116343;28;20035;-80
2022/05/31 07:46:10;;;;;;;5.43;3.20;;;;;;;18.24;86.41;97949.34;5116025;28;20072;-81
2022/05/31 07:48:38;;;;;;;9.00;3.75;;;;;;;19.05;81.59;97949.97;5116768;28;20026;-81
2022/05/31 07:51:04;;;;;;;8.20;3.75;;;;;;;19.09;80.62;97950.91;5098247;28;20471;-79
2022/05/31 07:53:30;;;;;;;8.55;3.50;;;;;;;18.50;82.77;97947.06;5098107;28;20562;-77
2022/05/31 07:55:57;;;;;;;9.18;3.70;;;;;;;18.91;80.96;97948.75;5097450;28;20019;-80
2022/05/31 07:58:32;;;;;;;10.90;3.85;;;;;;;18.80;81.76;97953.97;5116094;28;20023;-81
2022/05/31 08:01:04;;;;;;;8.20;4.32;;;;;;;19.37;78.92;97942.59;5097884;28;20468;-80
2022/05/31 08:03:30;;;;;;;6.60;3.55;;;;;;;18.82;80.54;97953.63;5098814;28;20035;-80
2022/05/31 08:05:57;;;;;;;8.73;4.28;;;;;;;18.72;82.25;97938.28;5084007;27;20058;-79
2022/05/31 08:08:23;;;;;;;8.70;3.63;;;;;;;18.10;83.37;97935.84;5126343;27;20038;-78
2022/05/31 08:10:48;;;;;;;5.75;3.63;;;;;;;18.16;85.48;97938.03;5124028;27;20016;-79
2022/05/31 08:13:14;;;;;;;5.18;3.28;;;;;;;18.17;85.63;97933.28;5123071;27;20065;-81
2022/05/31 08:15:40;;;;;;;4.85;3.30;;;;;;;18.65;80.07;97943.59;5123087;27;20046;-80
2022/05/31 08:18:06;;;;;;;5.07;3.10;;;;;;;18.81;78.91;97944.50;5123905;27;20020;-80
2022/05/31 08:20:31;;;;;;;5.93;3.50;;;;;;;18.61;79.46;97945.44;5125812;27;20026;-81
2022/05/31 08:22:57;;;;;;;5.97;3.92;;;;;;;18.63;80.10;97937.59;5104429;27;20023;-82
2022/05/31 08:25:22;;;;;;;9.73;3.70;;;;;;;18.64;78.53;97939.19;5104816;27;20019;-80
2022/05/31 08:27:48;;;;;;;4.47;2.90;;;;;;;18.80;80.34;97944.84;5104759;27;20058;-77
2022/05/31 08:30:14;;;;;;;7.47;3.00;;;;;;;19.29;79.09;97937.22;5114644;27;20050;-79
2022/05/31 08:32:39;;;;;;;4.70;3.15;;;;;;;19.62;77.09;97937.78;5107263;28;20031;-79
2022/05/31 08:35:07;;;;;;;7.07;3.75;;;;;;;19.07;78.40;97936.59;5103250;28;20047;-78
2022/05/31 08:37:32;;;;;;;4.25;3.25;;;;;;;19.19;75.96;97938.50;5099460;28;20037;-78
2022/05/31 08:39:58;;;;;;;7.43;4.15;;;;;;;19.88;74.17;97943.66;5115150;28;20361;-78
2022/05/31 08:42:46;;;;;;;7.63;3.90;;;;;;;20.10;71.17;97933.91;5122013;27;20494;-80
2022/05/31 08:45:23;;;;;;;5.50;3.42;;;;;;;21.18;67.60;97942.44;5106688;27;20107;-80
2022/05/31 08:48:35;;;;;;;7.57;4.03;;;;;;;21.59;64.03;97950.06;5126517;27;20091;-81
2022/05/31 08:56:57;;;;;;;5.10;3.60;;;;;;;21.25;63.41;97945.41;5124163;27;20038;-78
2022/05/31 08:59:48;;;;;;;6.32;3.58;;;;;;;20.01;67.78;97936.88;5127102;27;20027;-77
2022/05/31 09:02:22;;;;;;;7.43;3.80;;;;;;;20.74;66.29;97941.84;5119844;27;20051;-80
2022/05/31 09:05:03;;;;;;;12.02;3.88;;;;;;;21.39;64.11;97942.13;5117450;27;20080;-75
2022/05/31 09:07:50;;;;;;;4.80;3.45;;;;;;;22.57;59.04;97941.13;5121177;27;20108;-75
2022/05/31 09:10:25;;;;;;;8.43;3.30;;;;;;;23.91;54.74;97945.75;5121618;27;20414;-76
2022/05/31 09:13:02;;;;;;;4.63;3.17;;;;;;;24.37;52.58;97943.47;5104582;27;20023;-75
2022/05/31 09:15:49;;;;;;;7.07;3.60;;;;;;;24.95;51.03;97935.91;5123624;27;20023;-76
2022/05/31 09:18:17;;;;;;;5.88;3.30;;;;;;;24.62;51.80;97936.03;5121865;27;20015;-75
2022/05/31 09:20:48;;;;;;;5.82;3.15;;;;;;;22.39;56.56;97932.47;5119639;27;20119;-76
2022/05/31 09:23:19;;;;;;;5.93;3.50;;;;;;;22.32;57.42;97933.16;5102343;27;20392;-75
2022/05/31 09:25:46;;;;;;;5.93;3.38;;;;;;;21.85;59.45;97929.91;5132202;27;20142;-76
2022/05/31 09:28:46;;;;;;;7.22;3.50;;;;;;;22.57;56.48;97930.78;5132151;27;20472;-76
2022/05/31 09:31:22;;;;;;;7.10;3.72;;;;;;;23.15;55.10;97931.22;5134311;27;20023;-82
2022/05/31 09:34:22;;;;;;;5.10;3.00;;;;;;;23.83;53.65;97918.94;5114547;28;20034;-76
2022/05/31 09:37:03;;;;;;;4.57;3.33;;;;;;;25.59;49.51;97929.88;5088821;27;20092;-77
2022/05/31 09:39:46;;;;;;;3.92;2.80;;;;;;;26.77;44.87;97924.03;5131532;27;20032;-83
2022/05/31 09:42:30;;;;;;;4.90;3.28;;;;;;;26.85;43.14;97923.63;5131838;27;20046;-83
2022/05/31 09:45:18;;;;;;;3.92;2.47;;;;;;;25.85;45.31;97926.72;5115824;27;20031;-75
2022/05/31 09:47:44;;;;;;;4.43;2.30;;;;;;;25.14;46.97;97940.44;5135618;27;20080;-77
2022/05/31 09:50:09;;;;;;;5.25;2.80;;;;;;;24.67;47.79;97916.09;5115800;27;20027;-80
2022/05/31 09:52:47;;;;;;;5.72;3.83;;;;;;;23.28;51.44;97929.00;5096132;27;20062;-79
2022/05/31 09:58:21;;;;;;;8.35;3.85;;;;;;;24.20;50.65;97922.53;5133028;27;20038;-80
2022/05/31 10:01:11;;;;;;;4.97;3.30;;;;;;;24.38;49.12;97912.28;5130908;27;20539;-79
2022/05/31 10:03:48;;;;;;;5.28;3.22;;;;;;;25.02;48.08;97913.56;5108727;28;20129;-76
2022/05/31 10:06:22;;;;;;;6.20;3.30;;;;;;;25.52;46.04;97919.44;5113316;28;20076;-77
2022/05/31 10:08:51;;;;;;;8.32;3.83;;;;;;;26.32;44.60;97929.25;5132112;28;20043;-79
2022/05/31 10:11:28;;;;;;;5.47;3.45;;;;;;;26.63;43.64;97907.22;5132050;28;20415;-83
2022/05/31 10:14:00;;;;;;;6.40;3.65;;;;;;;27.93;40.86;97936.94;5128342;28;20035;-80
2022/05/31 10:16:30;;;;;;;6.00;3.25;;;;;;;27.66;41.23;97926.22;5106137;28;20031;-81
2022/05/31 10:18:58;;;;;;;5.18;3.40;;;;;;;27.84;41.15;97914.91;5106190;28;20031;-79
2022/05/31 10:21:38;;;;;;;6.68;3.95;;;;;;;25.71;45.76;97915.50;5120212;28;20066;-79
2022/05/31 10:24:22;;;;;;;4.28;3.22;;;;;;;26.28;44.84;97922.81;5131400;28;20023;-76
2022/05/31 10:27:09;;;;;;;6.88;3.97;;;;;;;24.43;48.31;97911.91;5133295;28;20473;-78
2022/05/31 10:29:47;;;;;;;6.90;3.53;;;;;;;24.05;50.89;97908.75;5131525;28;20027;-78
2022/05/31 10:32:22;;;;;;;8.27;3.72;;;;;;;23.24;53.30;97895.47;5131181;28;20034;-76
2022/05/31 10:34:47;;;;;;;5.65;3.42;;;;;;;23.03;54.69;97886.81;5112973;28;20030;-76
2022/05/31 10:37:29;;;;;;;7.93;3.60;;;;;;;23.33;54.62;97881.22;5131179;28;20035;-73
2022/05/31 10:40:07;;;;;;;6.28;3.92;;;;;;;23.33;53.83;97876.44;5132344;28;20030;-73
2022/05/31 10:42:37;;;;;;;5.07;3.40;;;;;;;23.05;55.23;97876.09;5129186;28;20019;-75
2022/05/31 10:45:07;;;;;;;6.32;4.10;;;;;;;23.10;54.87;97872.97;5132403;27;20035;-76
2022/05/31 10:47:32;;;;;;;5.95;3.78;;;;;;;23.10;54.86;97872.16;5135745;27;20471;-75
2022/05/31 10:49:58;;;;;;;5.88;3.47;;;;;;;23.26;54.91;97868.00;5135385;27;20075;-75
2022/05/31 10:52:35;;;;;;;5.80;3.85;;;;;;;23.07;55.31;97873.72;5138378;27;20071;-75
2022/05/31 10:55:13;;;;;;;7.13;3.80;;;;;;;22.88;56.24;97865.50;5142024;27;20035;-74
2022/05/31 10:58:00;;;;;;;7.82;3.60;;;;;;;22.45;57.86;97868.81;5135246;27;20042;-77
2022/05/31 11:00:28;;;;;;;6.20;4.13;;;;;;;21.52;61.02;97869.19;5134752;27;20023;-77
2022/05/31 11:02:56;;;;;;;6.47;3.25;;;;;;;21.86;61.17;97864.66;5134826;27;20038;-76
2022/05/31 11:05:36;;;;;;;5.00;3.63;;;;;;;22.09;60.34;97848.75;5135236;27;20034;-74
2022/05/31 11:11:52;;;;;;;6.90;3.88;;;;;;;22.12;60.36;97850.78;5119406;27;20126;-75
2022/05/31 11:14:44;;;;;;;6.40;3.78;;;;;;;22.13;60.25;97851.59;5113750;27;20031;-74
2022/05/31 11:17:37;;;;;;;8.30;4.10;;;;;;;22.64;59.13;97850.00;5118953;27;20032;-76
2022/05/31 11:20:09;;;;;;;6.50;3.50;;;;;;;22.07;60.58;97839.97;5113803;27;20032;-76
2022/05/31 11:22:57;;;;;;;5.65;3.70;;;;;;;22.24;59.80;97816.34;5112154;28;20035;-78
2022/05/31 11:25:41;;;;;;;5.90;3.38;;;;;;;22.61;59.05;97828.44;5116644;27;20031;-78
2022/05/31 11:28:50;;;;;;;5.45;3.95;;;;;;;22.80;58.45;97836.72;5119159;27;20032;-74
2022/05/31 11:31:39;;;;;;;7.28;3.65;;;;;;;22.59;59.33;97828.00;5114990;27;20019;-77
2022/05/31 11:34:24;;;;;;;5.95;3.83;;;;;;;23.00;58.51;97826.19;5097735;28;20035;-78
2022/05/31 11:37:09;;;;;;;6.15;3.45;;;;;;;22.99;58.18;97818.22;5111055;27;20023;-76
2022/05/31 11:39:49;;;;;;;7.47;4.20;;;;;;;23.18;58.23;97812.47;5110711;27;20472;-76
2022/05/31 11:42:17;;;;;;;5.88;3.30;;;;;;;23.13;58.01;97807.19;5094950;28;20138;-76
2022/05/31 11:45:03;;;;;;;6.22;3.58;;;;;;;23.14;58.39;97822.78;5125728;27;20541;-78
2022/05/31 11:47:34;;;;;;;7.93;3.80;;;;;;;21.99;61.52;97813.16;5121117;27;20023;-77
2022/05/31 11:50:26;;;;;;;7.63;3.88;;;;;;;22.20;62.04;97807.13;5124549;27;20074;-79
2022/05/31 11:53:16;;;;;;;4.35;3.47;;;;;;;21.86;62.65;97803.38;5123916;27;20484;-79
2022/05/31 11:55:52;;;;;;;5.55;3.60;;;;;;;22.53;60.85;97809.19;5107668;27;20027;-79
2022/05/31 11:58:26;;;;;;;5.65;3.72;;;;;;;23.10;59.44;97794.00;5097109;27;20540;-81
2022/05/31 12:01:14;;;;;;;4.28;3.15;;;;;;;23.65;57.40;97795.03;5098086;27;20059;-80
2022/05/31 12:04:06;;;;;;;7.93;3.30;;;;;;;23.74;57.26;97789.91;5097282;28;20027;-81
2022/05/31 12:06:43;;;;;;;5.35;3.55;;;;;;;23.15;57.45;97791.66;5100160;27;20034;-79
2022/05/31 12:09:27;;;;;;;6.05;3.33;;;;;;;23.23;57.43;97787.78;5122756;27;20046;-79